Flight Track Log - Related Links

Times and Time Zones

All times are in EDT time to prevent confusion due to time zone crossing. See the SWA1718 flight status page for this flight to view local times or setup timezone preferences in your user account.

Time Position Orientation Groundspeed Altitude Reporting Facility
EDT Latitude Longitude Course Direction KTS MPH feet Rate Location/Type
Thu 11:30:18 PM 41.8167 -87.7833 340° North 222 255 3,000  Level Chicago TRACON
Thu 11:31:18 PM 41.8000 -87.6833 103° East 249 287 3,200 1,081 Climbing Chicago TRACON
Thu 11:32:09 PM 41.8044 -87.6158 85° East 250 288 5,000 3,054 Climbing Chicago Center
Thu 11:33:10 PM 41.7958 -87.5069 96° East 279 321 8,900 3,393 Climbing Chicago Center
Thu 11:34:11 PM 41.7864 -87.3958 96° East 300 345 11,900 2,927 Climbing Chicago Center
Thu 11:35:13 PM 41.7781 -87.2664 95° East 346 398 14,900 3,317 Climbing Chicago Center
Thu 11:36:14 PM 41.7664 -87.1308 97° East 364 419 18,700 3,148 Climbing Chicago Center
Thu 11:37:15 PM 41.7625 -86.9931 92° East 373 429 21,300 2,361 Climbing Chicago Center
Thu 11:38:16 PM 41.7647 -86.8378 89° East 415 478 23,500 2,213 Climbing Chicago Center
Thu 11:39:17 PM 41.7658 -86.6819 89° East 434 499 25,800 2,361 Climbing Chicago Center
Thu 11:40:18 PM 41.7667 -86.4803 90° East 451 519 28,300 1,561 Climbing Chicago Center
Thu 11:41:20 PM 41.7706 -86.3061 88° East 466 536 29,000 341 Climbing Chicago Center
Thu 11:42:21 PM 41.8022 -86.1206 77° East 506 582 29,000  Level Chicago Center
Thu 11:43:22 PM 41.8342 -85.9358 77° East 509 586 29,000  Level Chicago Center
Thu 11:44:23 PM 41.8658 -85.7492 77° East 511 588 29,000  Level Chicago Center
Thu 11:45:24 PM 41.8972 -85.5592 77° East 514 592 29,000  Level Chicago Center
Thu 11:46:25 PM 41.9292 -85.3714 77° East 510 587 29,000  Level Chicago Center
Thu 11:47:26 PM 41.9517 -85.1839 81° East 503 579 29,000  Level Chicago Center
Thu 11:48:28 PM 41.9500 -84.9953 91° East 502 578 29,000  Level Chicago Center
Thu 11:49:29 PM 41.9497 -84.8117 90° East 494 568 29,000  Level Chicago Center
Thu 11:50:30 PM 41.9508 -84.6281 89° East 493 567 29,000 -492 Level Chicago Center
Thu 11:51:31 PM 41.9733 -84.4400 81° East 497 572 28,000 -938 Descending Chicago Center
Thu 11:52:38 PM 41.9933 -84.2406 82° East 493 567 27,000 -472 Descending Cleveland Center
Thu 11:53:38 PM 42.0156 -84.0658 80° East 480 552 27,000  Level Cleveland Center
Thu 11:54:38 PM 42.0353 -83.8906 81° East 480 552 27,000  Level Cleveland Center
Thu 11:55:38 PM 42.0567 -83.7183 80° East 480 552 27,000  Level Cleveland Center
Thu 11:56:38 PM 42.0806 -83.5264 80° East 475 547 27,000  Level Cleveland Center
Thu 11:57:38 PM 42.1017 -83.3511 81° East 475 547 27,000  Level Cleveland Center
Thu 11:58:38 PM 42.1183 -83.1781 83° East 468 539 27,000  Level Cleveland Center
Thu 11:59:38 PM 42.1386 -83.0053 81° East 468 539 27,000  Level Cleveland Center
Fri 12:00:38 AM 42.1589 -82.8325 81° East 462 532 27,000  Level Cleveland Center
Fri 12:01:38 AM 42.1767 -82.6594 82° East 462 532 27,000  Level Cleveland Center
Fri 12:02:38 AM 42.1942 -82.4889 82° East 462 532 27,000 -550 Level Cleveland Center
Fri 12:03:38 AM 42.2136 -82.3186 81° East 462 532 25,900 -1,000 Descending Cleveland Center
Fri 12:04:38 AM 42.2308 -82.1450 82° East 462 532 25,000 -450 Descending Cleveland Center
Fri 12:05:38 AM 42.2472 -81.9969 81° East 456 525 25,000  Level Cleveland Center
Fri 12:06:38 AM 42.2636 -81.8344 82° East 448 516 25,000  Level Cleveland Center
Fri 12:07:38 AM 42.2822 -81.6497 82° East 442 509 25,000  Level Cleveland Center
Fri 12:08:38 AM 42.2961 -81.4869 83° East 442 509 25,000  Level Cleveland Center
Fri 12:09:38 AM 42.3119 -81.3244 82° East 442 509 25,000  Level Cleveland Center
Fri 12:10:38 AM 42.3294 -81.1617 82° East 442 509 25,000  Level Cleveland Center
Fri 12:11:38 AM 42.3447 -80.9933 83° East 442 509 25,000  Level Cleveland Center
Fri 12:12:38 AM 42.3600 -80.8278 83° East 442 509 25,000  Level Cleveland Center
Fri 12:13:38 AM 42.3769 -80.6647 82° East 442 509 25,000  Level Cleveland Center
Fri 12:14:38 AM 42.4164 -80.5242 69° East 442 509 25,000  Level Cleveland Center
Fri 12:15:38 AM 42.4683 -80.3692 66° East 442 509 25,000 -1,050 Level Cleveland Center
Fri 12:16:38 AM 42.5139 -80.2169 68° East 442 509 22,900 -2,150 Descending Cleveland Center
Fri 12:17:38 AM 42.5633 -80.0703 65° Northeast 437 503 20,700 -2,100 Descending Cleveland Center
Fri 12:18:38 AM 42.6125 -79.9203 66° East 432 497 18,700 -2,200 Descending Cleveland Center
Fri 12:19:38 AM 42.6594 -79.7758 66° East 427 491 16,300 -2,300 Descending Cleveland Center
Fri 12:20:38 AM 42.7064 -79.6256 67° East 427 491 14,100 -2,150 Descending Cleveland Center
Fri 12:21:38 AM 42.7489 -79.4833 68° East 414 476 12,000 -1,900 Descending Cleveland Center
Fri 12:22:38 AM 42.7892 -79.3497 68° East 396 456 10,300 -1,000 Descending Cleveland Center
Fri 12:23:38 AM 42.8358 -79.2328 61° Northeast 361 415 10,000 -550 Descending Cleveland Center
Fri 12:24:38 AM 42.8928 -79.1097 58° Northeast 338 389 9,200 -1,100 Descending Cleveland Center
Fri 12:25:38 AM 42.9433 -79.0006 58° Northeast 332 382 7,800 -1,450 Descending Cleveland Center
Fri 12:26:38 AM 42.9900 -78.9058 56° Northeast 326 375 6,300 -1,487 Descending Cleveland Center
Fri 12:27:31 AM 43.0333 -78.8000 61° Northeast 317 365 5,000 -1,912 Descending Buffalo TRACON
Fri 12:28:31 AM 43.0500 -78.7000 77° East 282 325 2,700 -1,300 Descending Buffalo TRACON
Fri 12:29:31 AM 43.0167 -78.6500 132° Southeast 163 188 2,400 -500 Descending Buffalo TRACON
Fri 12:30:31 AM 42.9833 -78.6667 200° South 105 121 1,700 -700 Descending Buffalo TRACON
Fri 12:31:31 AM 42.9500 -78.7000 216° Southwest 118 136 1,000 -700 Descending Buffalo TRACON

Login

Don't have an account? Register now (free) for customized features, flight alerts, and more!